Time;durP1;ratioP1;P1;durP2;ratioP2;P2;SDS_P1;SDS_P2;PMS_P1;PMS_P2;Temp;Humidity;BMP_temperature;BMP_pressure;BME280_temperature;BME280_humidity;BME280_pressure;Samples;Min_cycle;Max_cycle;Signal;HPM_P1;HPM_P2
2022/03/19 00:00:51;;;;;;;14.07;6.47;;;;;;;;;;5115393;28;20039;-70
2022/03/19 00:03:20;;;;;;;12.48;5.20;;;;;;;;;;5107543;28;20032;-70
2022/03/19 00:05:46;;;;;;;12.73;6.03;;;;;;;;;;5102671;27;20035;-70
2022/03/19 00:08:12;;;;;;;9.68;4.70;;;;;;;;;;5099525;28;20470;-70
2022/03/19 00:10:37;;;;;;;10.80;5.95;;;;;;;;;;5106210;27;20080;-70
2022/03/19 00:13:03;;;;;;;8.82;4.65;;;;;;;;;;5107582;28;20072;-70
2022/03/19 00:15:29;;;;;;;13.90;5.68;;;;;;;;;;5108468;27;20051;-70
2022/03/19 00:17:57;;;;;;;7.35;4.45;;;;;;;;;;5108977;27;20032;-70
2022/03/19 00:20:23;;;;;;;9.80;5.38;;;;;;;;;;5108671;27;20135;-70
2022/03/19 00:22:48;;;;;;;13.15;5.50;;;;;;;;;;5112864;27;20110;-70
2022/03/19 00:25:13;;;;;;;11.63;5.90;;;;;;;;;;5111439;28;20080;-70
2022/03/19 00:27:41;;;;;;;12.90;6.28;;;;;;;;;;5118077;27;20032;-70
2022/03/19 00:30:09;;;;;;;10.93;5.47;;;;;;;;;;5108919;28;20040;-70
2022/03/19 00:32:34;;;;;;;10.43;5.47;;;;;;;;;;5121116;27;20039;-70
2022/03/19 00:35:00;;;;;;;9.93;4.90;;;;;;;;;;5111002;27;20127;-70
2022/03/19 00:37:25;;;;;;;11.07;5.47;;;;;;;;;;5103912;28;20019;-70
2022/03/19 00:39:50;;;;;;;9.80;5.00;;;;;;;;;;5098907;28;20092;-70
2022/03/19 00:42:16;;;;;;;11.05;5.63;;;;;;;;;;5112503;27;20031;-70
2022/03/19 00:44:42;;;;;;;8.77;4.47;;;;;;;;;;5108343;28;20032;-70
2022/03/19 00:47:08;;;;;;;10.63;4.82;;;;;;;;;;5110688;28;20095;-70
2022/03/19 00:49:33;;;;;;;12.05;5.90;;;;;;;;;;5106217;28;20023;-70
2022/03/19 00:51:58;;;;;;;10.63;5.63;;;;;;;;;;5111927;27;20039;-70
2022/03/19 00:54:23;;;;;;;10.30;5.68;;;;;;;;;;5111954;28;20039;-70
2022/03/19 00:56:49;;;;;;;10.88;5.22;;;;;;;;;;5109306;28;20099;-70
2022/03/19 00:59:15;;;;;;;7.72;4.57;;;;;;;;;;5109742;28;20528;-70
2022/03/19 01:01:40;;;;;;;11.40;4.82;;;;;;;;;;5113317;27;20015;-71
2022/03/19 01:04:05;;;;;;;8.82;4.63;;;;;;;;;;5090586;28;20040;-70
2022/03/19 01:06:31;;;;;;;11.00;5.47;;;;;;;;;;5091092;27;20040;-70
2022/03/19 01:08:56;;;;;;;8.65;5.13;;;;;;;;;;5102235;27;20040;-70
2022/03/19 01:11:23;;;;;;;10.90;5.43;;;;;;;;;;5105793;27;20036;-70
2022/03/19 01:13:52;;;;;;;11.10;5.28;;;;;;;;;;5108612;27;20028;-70
2022/03/19 01:16:19;;;;;;;8.20;4.57;;;;;;;;;;5110777;28;20090;-70
2022/03/19 01:18:48;;;;;;;13.45;5.85;;;;;;;;;;5106523;27;20030;-70
2022/03/19 01:21:15;;;;;;;9.88;5.15;;;;;;;;;;5110548;27;20043;-70
2022/03/19 01:23:40;;;;;;;12.60;6.13;;;;;;;;;;5097314;28;20036;-71
2022/03/19 01:26:05;;;;;;;11.45;4.88;;;;;;;;;;5100533;28;20050;-70
2022/03/19 01:28:31;;;;;;;14.10;4.95;;;;;;;;;;5112056;28;20034;-70
2022/03/19 01:30:56;;;;;;;11.13;5.25;;;;;;;;;;5110896;28;20520;-70
2022/03/19 01:33:22;;;;;;;10.57;5.35;;;;;;;;;;5111014;27;20562;-70
2022/03/19 01:35:47;;;;;;;12.38;5.57;;;;;;;;;;5108727;27;20043;-70
2022/03/19 01:38:12;;;;;;;11.75;5.68;;;;;;;;;;5107640;28;20034;-70
2022/03/19 01:40:38;;;;;;;11.45;5.25;;;;;;;;;;5099050;28;20032;-70
2022/03/19 01:43:03;;;;;;;10.45;4.88;;;;;;;;;;5111336;27;20031;-70
2022/03/19 01:45:28;;;;;;;11.10;4.90;;;;;;;;;;5110924;28;20032;-70
2022/03/19 01:47:55;;;;;;;13.32;5.78;;;;;;;;;;5110906;27;20042;-70
2022/03/19 01:50:22;;;;;;;9.95;5.10;;;;;;;;;;5102256;28;20035;-70
2022/03/19 01:52:48;;;;;;;10.63;5.55;;;;;;;;;;5091250;28;20485;-70
2022/03/19 01:55:16;;;;;;;13.27;5.43;;;;;;;;;;5089529;28;20524;-70
2022/03/19 01:57:43;;;;;;;9.48;4.75;;;;;;;;;;5087140;28;20036;-70
2022/03/19 02:00:12;;;;;;;12.63;5.05;;;;;;;;;;5090252;28;20047;-70
2022/03/19 02:02:37;;;;;;;9.25;5.13;;;;;;;;;;5098365;28;20039;-70
2022/03/19 02:05:03;;;;;;;11.80;5.40;;;;;;;;;;5110755;28;20086;-70
2022/03/19 02:07:30;;;;;;;13.00;4.53;;;;;;;;;;5109138;28;20122;-70
2022/03/19 02:10:02;;;;;;;10.48;4.45;;;;;;;;;;5096368;27;20043;-70
2022/03/19 02:12:27;;;;;;;13.82;5.40;;;;;;;;;;5104170;28;20051;-70
2022/03/19 02:14:53;;;;;;;9.98;4.90;;;;;;;;;;5110379;27;20059;-70
2022/03/19 02:17:19;;;;;;;11.50;5.20;;;;;;;;;;5109895;27;20040;-70
2022/03/19 02:19:52;;;;;;;10.50;5.38;;;;;;;;;;5097081;28;20113;-70
2022/03/19 02:22:19;;;;;;;13.88;4.65;;;;;;;;;;5101639;28;20038;-70
2022/03/19 02:27:31;;;;;;;16.58;5.60;;;;;;;;;;5110414;27;20622;-70
2022/03/19 02:29:57;;;;;;;11.68;4.80;;;;;;;;;;5094174;27;20044;-70
2022/03/19 02:32:23;;;;;;;13.77;5.60;;;;;;;;;;5081017;28;20128;-70
2022/03/19 02:34:48;;;;;;;10.63;5.53;;;;;;;;;;5087922;28;20027;-70
2022/03/19 02:37:13;;;;;;;10.73;4.63;;;;;;;;;;5082891;28;20069;-70
2022/03/19 02:39:39;;;;;;;9.63;4.35;;;;;;;;;;5084217;28;20513;-70
2022/03/19 02:42:06;;;;;;;11.48;4.93;;;;;;;;;;5089757;28;20104;-70
2022/03/19 02:44:32;;;;;;;9.32;4.45;;;;;;;;;;5080767;28;20044;-70
2022/03/19 02:47:00;;;;;;;10.73;4.57;;;;;;;;;;5073204;28;20032;-70
2022/03/19 02:49:26;;;;;;;9.57;4.60;;;;;;;;;;5092394;28;20077;-70
2022/03/19 02:51:53;;;;;;;7.90;3.25;;;;;;;;;;5092296;28;20032;-70
2022/03/19 02:54:24;;;;;;;11.68;4.90;;;;;;;;;;5087786;28;20046;-70
2022/03/19 02:56:50;;;;;;;10.23;3.55;;;;;;;;;;5088831;28;20040;-70
2022/03/19 02:59:19;;;;;;;6.43;3.88;;;;;;;;;;5082463;28;20102;-70
2022/03/19 03:01:45;;;;;;;9.25;4.38;;;;;;;;;;5084467;27;20554;-70
2022/03/19 03:04:11;;;;;;;8.18;3.70;;;;;;;;;;5088125;28;20497;-70
2022/03/19 03:06:39;;;;;;;7.10;4.10;;;;;;;;;;5101483;27;20505;-70
2022/03/19 03:09:04;;;;;;;9.00;4.50;;;;;;;;;;5091122;27;20173;-70
2022/03/19 03:11:31;;;;;;;10.75;3.83;;;;;;;;;;5095494;27;20130;-70
2022/03/19 03:13:56;;;;;;;10.93;4.35;;;;;;;;;;5107071;27;20035;-70
2022/03/19 03:16:22;;;;;;;4.93;2.80;;;;;;;;;;5107882;28;20035;-70
2022/03/19 03:18:48;;;;;;;8.68;3.80;;;;;;;;;;5108756;28;20067;-70
2022/03/19 03:21:13;;;;;;;9.40;3.72;;;;;;;;;;5109145;27;20188;-70
2022/03/19 03:23:39;;;;;;;9.13;4.03;;;;;;;;;;5109073;28;20557;-70
2022/03/19 03:26:05;;;;;;;8.23;4.35;;;;;;;;;;5109209;28;20504;-70
2022/03/19 03:28:30;;;;;;;10.95;4.28;;;;;;;;;;5109925;28;20153;-70
2022/03/19 03:30:56;;;;;;;7.45;3.50;;;;;;;;;;5113943;27;20072;-70
2022/03/19 03:33:22;;;;;;;9.38;4.40;;;;;;;;;;5089919;28;20043;-70
2022/03/19 03:35:48;;;;;;;9.80;4.28;;;;;;;;;;5088532;28;20119;-70
2022/03/19 03:38:13;;;;;;;9.07;4.40;;;;;;;;;;5090521;28;20115;-70
2022/03/19 03:40:39;;;;;;;10.48;4.00;;;;;;;;;;5089747;28;20028;-70
2022/03/19 03:43:04;;;;;;;14.43;4.50;;;;;;;;;;5088569;28;20042;-70
2022/03/19 03:45:30;;;;;;;7.60;4.07;;;;;;;;;;5088232;28;20044;-70
2022/03/19 03:47:55;;;;;;;10.00;3.90;;;;;;;;;;5088772;28;20036;-70
2022/03/19 03:50:21;;;;;;;8.70;3.88;;;;;;;;;;5089356;27;20457;-70
2022/03/19 03:52:47;;;;;;;9.40;4.07;;;;;;;;;;5108860;28;20509;-70
2022/03/19 03:55:14;;;;;;;5.68;3.13;;;;;;;;;;5106644;28;20049;-70
2022/03/19 03:57:40;;;;;;;7.53;3.60;;;;;;;;;;5091500;27;20067;-70
2022/03/19 04:00:10;;;;;;;8.38;3.67;;;;;;;;;;5086042;28;20123;-70
2022/03/19 04:02:37;;;;;;;6.90;3.85;;;;;;;;;;5086232;28;20032;-71
2022/03/19 04:05:03;;;;;;;8.35;4.25;;;;;;;;;;5085660;28;20083;-70
2022/03/19 04:07:29;;;;;;;6.78;4.03;;;;;;;;;;5088633;28;20168;-71
2022/03/19 04:09:55;;;;;;;9.48;4.30;;;;;;;;;;5087903;28;20127;-70
2022/03/19 04:12:22;;;;;;;7.10;3.55;;;;;;;;;;5088892;27;20469;-70
2022/03/19 04:14:47;;;;;;;9.35;3.20;;;;;;;;;;5088213;28;20036;-70
2022/03/19 04:17:12;;;;;;;10.75;4.68;;;;;;;;;;5088516;28;20039;-70
2022/03/19 04:19:38;;;;;;;8.60;3.55;;;;;;;;;;5086552;28;20028;-70
2022/03/19 04:22:03;;;;;;;6.88;3.58;;;;;;;;;;5084815;28;20078;-70
2022/03/19 04:24:29;;;;;;;7.03;3.42;;;;;;;;;;5083518;28;20048;-70
2022/03/19 04:26:54;;;;;;;4.75;2.75;;;;;;;;;;5088149;28;20044;-70
2022/03/19 04:29:20;;;;;;;10.98;4.00;;;;;;;;;;5093729;27;20036;-70
2022/03/19 04:31:45;;;;;;;7.60;3.50;;;;;;;;;;5107593;27;20394;-70
2022/03/19 04:34:10;;;;;;;11.50;3.50;;;;;;;;;;5088803;28;20031;-70
2022/03/19 04:36:37;;;;;;;9.30;3.17;;;;;;;;;;5086298;28;20162;-70
2022/03/19 04:39:04;;;;;;;10.85;3.35;;;;;;;;;;5083126;28;20040;-70
2022/03/19 04:41:30;;;;;;;9.55;3.53;;;;;;;;;;5088121;28;20040;-70
2022/03/19 04:43:56;;;;;;;9.10;3.10;;;;;;;;;;5087689;27;20038;-70
2022/03/19 04:46:21;;;;;;;7.38;3.08;;;;;;;;;;5087673;28;20031;-70
2022/03/19 04:48:47;;;;;;;7.57;3.03;;;;;;;;;;5088205;27;20088;-70
2022/03/19 04:51:16;;;;;;;6.72;3.13;;;;;;;;;;5087233;27;20093;-70
2022/03/19 04:53:42;;;;;;;6.68;3.17;;;;;;;;;;5084651;28;20122;-70
2022/03/19 04:56:07;;;;;;;7.22;3.90;;;;;;;;;;5100405;28;20417;-70
2022/03/19 04:58:34;;;;;;;9.73;3.85;;;;;;;;;;5088612;28;20032;-70
2022/03/19 05:00:59;;;;;;;10.30;3.75;;;;;;;;;;5088168;28;20048;-70
2022/03/19 05:03:25;;;;;;;7.05;3.05;;;;;;;;;;5102541;28;20032;-70
2022/03/19 05:05:50;;;;;;;7.82;3.72;;;;;;;;;;5106652;28;20043;-70
2022/03/19 05:08:16;;;;;;;11.43;4.32;;;;;;;;;;5094643;28;20047;-70
2022/03/19 05:13:26;;;;;;;10.30;3.60;;;;;;;;;;5112702;28;20104;-70
2022/03/19 05:15:51;;;;;;;7.65;3.85;;;;;;;;;;5111004;28;20039;-70
2022/03/19 05:18:17;;;;;;;6.82;3.08;;;;;;;;;;5110552;28;20044;-70
2022/03/19 05:20:43;;;;;;;10.32;3.83;;;;;;;;;;5109757;28;20493;-70
2022/03/19 05:23:09;;;;;;;11.57;3.40;;;;;;;;;;5107299;28;20738;-70
2022/03/19 05:25:34;;;;;;;9.05;4.25;;;;;;;;;;5107872;27;20077;-70
2022/03/19 05:28:00;;;;;;;7.97;3.30;;;;;;;;;;5111443;27;20090;-70
2022/03/19 05:30:25;;;;;;;8.30;3.67;;;;;;;;;;5111301;27;20070;-70
2022/03/19 05:32:51;;;;;;;10.10;4.45;;;;;;;;;;5111070;28;20044;-70
2022/03/19 05:35:18;;;;;;;7.75;3.63;;;;;;;;;;5110093;28;20055;-70
2022/03/19 05:37:44;;;;;;;9.43;4.47;;;;;;;;;;5110053;27;20027;-70
2022/03/19 05:40:10;;;;;;;7.25;3.85;;;;;;;;;;5111835;28;20092;-70
2022/03/19 05:42:36;;;;;;;6.88;4.30;;;;;;;;;;5107796;28;20054;-70
2022/03/19 05:45:01;;;;;;;13.13;4.35;;;;;;;;;;5092941;28;20134;-70
2022/03/19 05:47:27;;;;;;;7.90;3.58;;;;;;;;;;5089324;28;20040;-70
2022/03/19 05:49:52;;;;;;;10.52;4.15;;;;;;;;;;5089125;28;20024;-70
2022/03/19 05:52:17;;;;;;;10.90;4.90;;;;;;;;;;5090375;28;20027;-70
2022/03/19 05:54:43;;;;;;;12.43;4.80;;;;;;;;;;5090952;27;20579;-70
2022/03/19 05:57:08;;;;;;;12.13;4.53;;;;;;;;;;5090507;27;20241;-70
2022/03/19 05:59:34;;;;;;;12.18;5.10;;;;;;;;;;5088527;28;20040;-70
2022/03/19 06:01:59;;;;;;;13.75;4.82;;;;;;;;;;5089929;28;20062;-70
2022/03/19 06:04:25;;;;;;;8.32;4.22;;;;;;;;;;5110677;28;20480;-70
2022/03/19 06:06:50;;;;;;;7.20;3.08;;;;;;;;;;5110491;28;20047;-70
2022/03/19 06:09:16;;;;;;;10.73;4.65;;;;;;;;;;5109144;28;20040;-70
2022/03/19 06:11:43;;;;;;;11.30;5.25;;;;;;;;;;5110323;28;20475;-70
2022/03/19 06:14:09;;;;;;;10.25;4.13;;;;;;;;;;5102525;28;20060;-70
2022/03/19 06:16:34;;;;;;;10.65;5.03;;;;;;;;;;5095055;28;20073;-71
2022/03/19 06:18:59;;;;;;;12.95;5.45;;;;;;;;;;5103019;27;20059;-70
2022/03/19 06:21:25;;;;;;;13.82;5.90;;;;;;;;;;5110450;28;20036;-70
2022/03/19 06:23:51;;;;;;;9.30;4.13;;;;;;;;;;5109704;27;20432;-70
2022/03/19 06:26:18;;;;;;;12.13;5.15;;;;;;;;;;5105841;27;20039;-70
2022/03/19 06:28:44;;;;;;;13.05;5.30;;;;;;;;;;5109811;27;20480;-70
2022/03/19 06:31:09;;;;;;;10.25;5.00;;;;;;;;;;5109310;27;20680;-70
2022/03/19 06:33:34;;;;;;;10.38;4.43;;;;;;;;;;5103559;28;20043;-70
2022/03/19 06:38:44;;;;;;;;;;;;;;;;;;5090058;28;20038;-68
2022/03/19 06:41:12;;;;;;;13.20;5.32;;;;;;;;;;5088295;28;19912;-68
2022/03/19 06:43:38;;;;;;;11.27;4.30;;;;;;;;;;5081350;28;20102;-68
2022/03/19 06:46:04;;;;;;;13.93;6.15;;;;;;;;;;5070862;28;20041;-68
2022/03/19 06:48:29;;;;;;;11.70;5.50;;;;;;;;;;5080374;28;20048;-68
2022/03/19 06:50:55;;;;;;;14.38;5.10;;;;;;;;;;5091295;28;20059;-68
2022/03/19 06:53:21;;;;;;;11.50;5.10;;;;;;;;;;5096084;28;20066;-67
2022/03/19 06:55:47;;;;;;;10.82;4.78;;;;;;;;;;5109747;28;20059;-68
2022/03/19 06:58:12;;;;;;;11.75;4.90;;;;;;;;;;5110216;28;20059;-68
2022/03/19 07:00:39;;;;;;;9.27;4.28;;;;;;;;;;5103691;27;20492;-68
2022/03/19 07:03:05;;;;;;;10.55;4.47;;;;;;;;;;5104598;27;20100;-68
2022/03/19 07:05:31;;;;;;;9.18;4.88;;;;;;;;;;5099617;27;20036;-67
2022/03/19 07:07:58;;;;;;;13.82;4.78;;;;;;;;;;5097121;27;20123;-68
2022/03/19 07:10:24;;;;;;;12.27;5.35;;;;;;;;;;5109667;28;20019;-68
2022/03/19 07:12:57;;;;;;;11.95;5.65;;;;;;;;;;5108309;28;20081;-68
2022/03/19 07:15:25;;;;;;;11.52;4.93;;;;;;;;;;5100789;28;20043;-68
2022/03/19 07:17:51;;;;;;;15.13;5.45;;;;;;;;;;5106535;28;20035;-68
2022/03/19 07:20:17;;;;;;;11.60;5.10;;;;;;;;;;5104256;28;20074;-68
2022/03/19 07:22:52;;;;;;;18.30;4.47;;;;;;;;;;5104114;28;20080;-68
2022/03/19 07:25:19;;;;;;;8.73;4.10;;;;;;;;;;5107986;28;20023;-68
2022/03/19 07:27:46;;;;;;;7.47;2.88;;;;;;;;;;5107657;28;20039;-68
2022/03/19 07:30:12;;;;;;;14.35;5.90;;;;;;;;;;5108405;28;20039;-68
2022/03/19 07:32:37;;;;;;;12.45;5.68;;;;;;;;;;5089116;27;20051;-68
2022/03/19 07:35:04;;;;;;;12.88;5.97;;;;;;;;;;5099584;27;20047;-68
2022/03/19 07:37:29;;;;;;;8.13;4.15;;;;;;;;;;5104265;28;20031;-68
2022/03/19 07:39:56;;;;;;;23.25;5.47;;;;;;;;;;5093239;27;20032;-68
2022/03/19 07:42:22;;;;;;;9.82;4.38;;;;;;;;;;5102283;28;20050;-68
2022/03/19 07:44:47;;;;;;;11.02;4.00;;;;;;;;;;5103410;28;20027;-68
2022/03/19 07:47:12;;;;;;;13.43;5.22;;;;;;;;;;5107588;27;20473;-68
2022/03/19 07:49:39;;;;;;;8.27;3.90;;;;;;;;;;5107458;28;20023;-68
2022/03/19 07:52:05;;;;;;;10.60;3.95;;;;;;;;;;5098914;27;20032;-69
2022/03/19 07:54:31;;;;;;;10.15;5.18;;;;;;;;;;5093493;28;20110;-68
2022/03/19 07:56:57;;;;;;;11.82;5.40;;;;;;;;;;5081822;28;20522;-69
2022/03/19 07:59:23;;;;;;;12.13;5.47;;;;;;;;;;5075323;28;20036;-68
2022/03/19 08:01:49;;;;;;;11.55;5.38;;;;;;;;;;5079872;28;20059;-69
2022/03/19 08:04:15;;;;;;;11.88;5.50;;;;;;;;;;5085133;28;20086;-68
2022/03/19 08:06:40;;;;;;;15.32;5.55;;;;;;;;;;5098822;28;20454;-71
2022/03/19 08:09:07;;;;;;;13.55;5.38;;;;;;;;;;5107253;28;20836;-68
2022/03/19 08:11:33;;;;;;;8.50;3.70;;;;;;;;;;5104150;28;20043;-69
2022/03/19 08:14:00;;;;;;;12.55;5.20;;;;;;;;;;5106761;27;20042;-68
2022/03/19 08:16:25;;;;;;;9.18;3.97;;;;;;;;;;5109205;28;20032;-69
2022/03/19 08:18:51;;;;;;;12.13;5.22;;;;;;;;;;5106629;28;20040;-69
2022/03/19 08:21:16;;;;;;;10.90;5.15;;;;;;;;;;5105473;28;20097;-68
2022/03/19 08:23:42;;;;;;;14.73;6.18;;;;;;;;;;5102654;27;20040;-68
2022/03/19 08:26:07;;;;;;;15.02;5.22;;;;;;;;;;5106677;28;20108;-69
2022/03/19 08:28:32;;;;;;;11.85;4.78;;;;;;;;;;5108949;28;20033;-68
2022/03/19 08:30:58;;;;;;;13.60;5.57;;;;;;;;;;5096488;27;20077;-68
2022/03/19 08:33:25;;;;;;;12.52;5.45;;;;;;;;;;5101876;27;20089;-68
2022/03/19 08:35:50;;;;;;;11.80;5.65;;;;;;;;;;5106301;28;20424;-68
2022/03/19 08:40:59;;;;;;;12.52;4.50;;;;;;;;;;5098515;28;20072;-68
2022/03/19 08:43:25;;;;;;;12.23;5.18;;;;;;;;;;5106017;28;20063;-68
2022/03/19 08:45:50;;;;;;;15.02;5.80;;;;;;;;;;5110358;27;20087;-68
2022/03/19 08:48:18;;;;;;;16.65;5.55;;;;;;;;;;5110474;27;20038;-68
2022/03/19 08:50:44;;;;;;;11.07;4.63;;;;;;;;;;5099118;28;20040;-68
2022/03/19 08:53:09;;;;;;;11.27;5.90;;;;;;;;;;5101349;27;20435;-68
2022/03/19 08:55:34;;;;;;;15.35;5.85;;;;;;;;;;5108006;27;20105;-68
2022/03/19 08:58:00;;;;;;;11.10;5.25;;;;;;;;;;5109770;28;20085;-68
2022/03/19 09:00:26;;;;;;;11.52;6.07;;;;;;;;;;5102183;28;20463;-68
2022/03/19 09:02:51;;;;;;;13.32;4.90;;;;;;;;;;5107288;27;20427;-68
2022/03/19 09:05:17;;;;;;;13.63;5.82;;;;;;;;;;5106268;27;20035;-68
2022/03/19 09:07:42;;;;;;;12.93;4.55;;;;;;;;;;5102975;27;20567;-68
2022/03/19 09:10:08;;;;;;;15.95;5.18;;;;;;;;;;5110963;27;20032;-68
2022/03/19 09:12:34;;;;;;;13.68;5.97;;;;;;;;;;5104863;28;20039;-69
2022/03/19 09:15:00;;;;;;;13.60;5.65;;;;;;;;;;5106709;27;20584;-69
2022/03/19 09:17:25;;;;;;;11.82;5.75;;;;;;;;;;5110949;28;20043;-69
2022/03/19 09:19:50;;;;;;;15.02;5.65;;;;;;;;;;5110381;27;20066;-69
2022/03/19 09:22:16;;;;;;;12.68;5.78;;;;;;;;;;5111383;28;20074;-69
2022/03/19 09:24:41;;;;;;;13.27;5.28;;;;;;;;;;5108688;27;20065;-70
2022/03/19 09:27:07;;;;;;;12.23;5.47;;;;;;;;;;5107589;27;20602;-69
2022/03/19 09:29:33;;;;;;;12.57;5.93;;;;;;;;;;5102448;28;20040;-69
2022/03/19 09:31:58;;;;;;;6.43;3.45;;;;;;;;;;5107802;27;20038;-69
2022/03/19 09:34:23;;;;;;;13.25;5.30;;;;;;;;;;5110720;28;20556;-69
2022/03/19 09:36:49;;;;;;;13.48;5.88;;;;;;;;;;5109438;27;20130;-70
2022/03/19 09:39:14;;;;;;;9.98;4.70;;;;;;;;;;5107610;27;20138;-69
2022/03/19 09:41:43;;;;;;;9.48;4.35;;;;;;;;;;5109722;27;20070;-69
2022/03/19 09:44:13;;;;;;;15.35;5.97;;;;;;;;;;5092440;28;20028;-69
2022/03/19 09:46:41;;;;;;;12.77;5.75;;;;;;;;;;5105010;28;20647;-69
2022/03/19 09:49:07;;;;;;;13.70;5.63;;;;;;;;;;5085231;28;20078;-69
2022/03/19 09:51:34;;;;;;;14.73;5.70;;;;;;;;;;5088748;28;20059;-69
2022/03/19 09:54:00;;;;;;;11.55;5.90;;;;;;;;;;5090020;28;20047;-70
2022/03/19 09:56:25;;;;;;;13.52;5.43;;;;;;;;;;5088404;28;20040;-70
2022/03/19 09:58:52;;;;;;;15.18;5.43;;;;;;;;;;5076634;28;20546;-69
2022/03/19 10:01:18;;;;;;;9.45;4.88;;;;;;;;;;5088493;28;20043;-69
2022/03/19 10:03:44;;;;;;;10.55;4.53;;;;;;;;;;5097782;28;20138;-70
2022/03/19 10:09:00;;;;;;;13.55;5.43;;;;;;;;;;5106242;27;20574;-70
2022/03/19 10:11:35;;;;;;;13.45;5.63;;;;;;;;;;5104537;27;20067;-70
2022/03/19 10:14:04;;;;;;;13.40;6.05;;;;;;;;;;5104058;27;20500;-70
2022/03/19 10:16:29;;;;;;;12.90;5.32;;;;;;;;;;5108053;28;20039;-70
2022/03/19 10:19:00;;;;;;;12.25;4.93;;;;;;;;;;5102875;28;20070;-70
2022/03/19 10:21:27;;;;;;;12.13;5.28;;;;;;;;;;5105433;28;20027;-70
2022/03/19 10:23:55;;;;;;;13.02;5.50;;;;;;;;;;5101637;27;20035;-69
2022/03/19 10:26:29;;;;;;;10.75;5.28;;;;;;;;;;5109724;27;20040;-70
2022/03/19 10:28:57;;;;;;;12.15;4.53;;;;;;;;;;5101548;27;20024;-70
2022/03/19 10:31:36;;;;;;;8.00;4.00;;;;;;;;;;5109945;28;20484;-69
2022/03/19 10:34:02;;;;;;;12.75;5.20;;;;;;;;;;5106771;27;20039;-70
2022/03/19 10:36:33;;;;;;;10.15;4.43;;;;;;;;;;5108838;27;20028;-70
2022/03/19 10:38:59;;;;;;;8.05;4.40;;;;;;;;;;5107901;27;20622;-70
2022/03/19 10:41:24;;;;;;;10.23;5.25;;;;;;;;;;5099833;28;20037;-70
2022/03/19 10:43:50;;;;;;;10.77;3.65;;;;;;;;;;5107275;27;20029;-70
2022/03/19 10:46:18;;;;;;;11.20;4.95;;;;;;;;;;5107983;28;20477;-70
2022/03/19 10:48:53;;;;;;;11.93;4.55;;;;;;;;;;5109048;27;20480;-70
2022/03/19 10:51:20;;;;;;;8.55;4.25;;;;;;;;;;5106147;27;20032;-70
2022/03/19 10:53:46;;;;;;;9.05;4.07;;;;;;;;;;5108348;28;20513;-70
2022/03/19 10:56:12;;;;;;;8.50;4.25;;;;;;;;;;5108899;28;20031;-70
2022/03/19 10:58:37;;;;;;;11.95;4.43;;;;;;;;;;5104112;28;20024;-70
2022/03/19 11:01:04;;;;;;;8.60;4.00;;;;;;;;;;5105082;28;20050;-70
2022/03/19 11:03:34;;;;;;;6.93;3.50;;;;;;;;;;5106148;28;20050;-70
2022/03/19 11:06:06;;;;;;;9.18;3.45;;;;;;;;;;5107809;27;20116;-70
2022/03/19 11:08:38;;;;;;;7.07;3.58;;;;;;;;;;5104818;27;20038;-70
2022/03/19 11:11:11;;;;;;;6.75;3.70;;;;;;;;;;5103849;28;20104;-70
2022/03/19 11:13:46;;;;;;;8.63;3.80;;;;;;;;;;5106162;28;20023;-70
2022/03/19 11:16:12;;;;;;;8.73;3.13;;;;;;;;;;5109070;28;20066;-70
2022/03/19 11:18:42;;;;;;;8.23;4.00;;;;;;;;;;5108542;27;20036;-70
2022/03/19 11:21:10;;;;;;;7.45;3.80;;;;;;;;;;5102301;28;20496;-70
2022/03/19 11:23:47;;;;;;;7.78;3.72;;;;;;;;;;5100632;28;20467;-70
2022/03/19 11:26:19;;;;;;;7.20;3.28;;;;;;;;;;5108330;27;20520;-70
2022/03/19 11:28:44;;;;;;;6.13;3.25;;;;;;;;;;5095652;28;20019;-70
2022/03/19 11:31:11;;;;;;;4.85;3.08;;;;;;;;;;5101439;28;20023;-69
2022/03/19 11:33:37;;;;;;;4.97;3.17;;;;;;;;;;5102752;28;20043;-69
2022/03/19 11:36:03;;;;;;;5.05;2.88;;;;;;;;;;5106012;28;20036;-69
2022/03/19 11:38:34;;;;;;;3.85;2.33;;;;;;;;;;5107822;27;20457;-69
2022/03/19 11:41:00;;;;;;;7.60;2.67;;;;;;;;;;5105662;27;23709;-69
2022/03/19 11:43:26;;;;;;;8.88;2.90;;;;;;;;;;5100013;28;20015;-69
2022/03/19 11:45:55;;;;;;;6.47;2.92;;;;;;;;;;5101774;28;20036;-70
2022/03/19 11:48:36;;;;;;;6.32;3.15;;;;;;;;;;5105495;28;20036;-69
2022/03/19 11:51:24;;;;;;;5.38;3.30;;;;;;;;;;5097820;28;20059;-69
2022/03/19 11:54:15;;;;;;;7.50;2.97;;;;;;;;;;5088639;28;20043;-69
2022/03/19 11:56:43;;;;;;;4.30;2.65;;;;;;;;;;5102522;28;20036;-69
2022/03/19 11:59:24;;;;;;;6.70;2.63;;;;;;;;;;5108387;27;20043;-69
2022/03/19 12:01:56;;;;;;;7.32;2.47;;;;;;;;;;5090863;28;20027;-69
2022/03/19 12:04:22;;;;;;;5.72;2.53;;;;;;;;;;5105013;28;20012;-69
2022/03/19 12:06:57;;;;;;;8.88;2.58;;;;;;;;;;5108022;27;20195;-69
2022/03/19 12:09:40;;;;;;;4.63;2.38;;;;;;;;;;5108118;27;20024;-69
2022/03/19 12:12:17;;;;;;;5.53;2.22;;;;;;;;;;5106167;28;20040;-69
2022/03/19 12:14:44;;;;;;;3.45;2.08;;;;;;;;;;5099317;27;20067;-69
2022/03/19 12:17:20;;;;;;;6.05;2.70;;;;;;;;;;5108640;28;20047;-69
2022/03/19 12:20:03;;;;;;;4.32;2.58;;;;;;;;;;5101044;27;20024;-69
2022/03/19 12:22:30;;;;;;;4.35;2.45;;;;;;;;;;5103855;28;20457;-70
2022/03/19 12:25:07;;;;;;;7.45;2.50;;;;;;;;;;5110089;28;20516;-69
2022/03/19 12:27:32;;;;;;;2.95;1.70;;;;;;;;;;5111994;28;20051;-69
2022/03/19 12:29:58;;;;;;;5.28;2.50;;;;;;;;;;5109469;27;20024;-69
2022/03/19 12:32:24;;;;;;;4.30;2.40;;;;;;;;;;5109741;28;20027;-69
2022/03/19 12:34:57;;;;;;;5.00;2.28;;;;;;;;;;5111566;27;20112;-70
2022/03/19 12:37:24;;;;;;;5.25;2.92;;;;;;;;;;5107578;28;20016;-69
2022/03/19 12:40:00;;;;;;;3.90;2.10;;;;;;;;;;5111205;28;20074;-69
2022/03/19 12:42:33;;;;;;;6.70;2.60;;;;;;;;;;5111800;27;20031;-69
2022/03/19 12:44:59;;;;;;;7.22;3.00;;;;;;;;;;5111358;27;20078;-69
2022/03/19 12:47:26;;;;;;;4.93;2.60;;;;;;;;;;5108613;27;20101;-70
2022/03/19 12:49:52;;;;;;;6.50;3.35;;;;;;;;;;5109827;27;20092;-69
2022/03/19 12:52:18;;;;;;;6.22;2.85;;;;;;;;;;5112521;28;20019;-70
2022/03/19 12:54:48;;;;;;;5.03;2.55;;;;;;;;;;5108267;27;20084;-69
2022/03/19 12:57:27;;;;;;;4.57;2.55;;;;;;;;;;5109448;27;20101;-69
2022/03/19 12:59:59;;;;;;;5.13;2.80;;;;;;;;;;5108470;27;20040;-69
2022/03/19 13:02:26;;;;;;;3.63;2.10;;;;;;;;;;5102937;28;20436;-69
2022/03/19 13:04:52;;;;;;;4.35;3.30;;;;;;;;;;5109505;27;20026;-69
2022/03/19 13:07:19;;;;;;;6.90;3.05;;;;;;;;;;5109268;28;20020;-69
2022/03/19 13:09:45;;;;;;;7.18;3.22;;;;;;;;;;5101392;27;20058;-69
2022/03/19 13:12:21;;;;;;;8.60;3.30;;;;;;;;;;5105656;27;20492;-69
2022/03/19 13:14:50;;;;;;;6.05;3.38;;;;;;;;;;5103496;28;20038;-69
2022/03/19 13:17:16;;;;;;;4.43;2.70;;;;;;;;;;5109479;27;20032;-69
2022/03/19 13:19:41;;;;;;;6.25;2.60;;;;;;;;;;5104171;28;20042;-69
2022/03/19 13:22:08;;;;;;;10.18;3.22;;;;;;;;;;5106853;27;20040;-69
2022/03/19 13:24:36;;;;;;;5.28;2.67;;;;;;;;;;5089421;28;20036;-69
2022/03/19 13:27:02;;;;;;;6.15;3.42;;;;;;;;;;5100877;27;20040;-69
2022/03/19 13:29:31;;;;;;;6.80;4.00;;;;;;;;;;5106929;27;20122;-69
2022/03/19 13:32:19;;;;;;;6.30;3.15;;;;;;;;;;5103819;27;20024;-69
2022/03/19 13:34:46;;;;;;;5.30;2.90;;;;;;;;;;5103481;27;20016;-69
2022/03/19 13:37:17;;;;;;;5.78;3.03;;;;;;;;;;5098849;28;20020;-69
2022/03/19 13:39:56;;;;;;;8.40;3.83;;;;;;;;;;5087620;28;20048;-69
2022/03/19 13:42:32;;;;;;;6.60;3.90;;;;;;;;;;5097746;28;20044;-69
2022/03/19 13:45:12;;;;;;;9.48;4.10;;;;;;;;;;5104686;28;20416;-69
2022/03/19 13:47:41;;;;;;;7.72;3.88;;;;;;;;;;5091481;28;20050;-69
2022/03/19 13:50:12;;;;;;;9.90;3.30;;;;;;;;;;5089002;28;20029;-69
2022/03/19 13:52:45;;;;;;;6.13;3.60;;;;;;;;;;5098689;28;20077;-69
2022/03/19 13:55:15;;;;;;;6.93;3.55;;;;;;;;;;5088221;28;20108;-69
2022/03/19 13:57:43;;;;;;;7.18;3.65;;;;;;;;;;5099017;27;20047;-69
2022/03/19 14:00:12;;;;;;;8.27;4.72;;;;;;;;;;5110055;27;20074;-69
2022/03/19 14:02:39;;;;;;;8.55;4.40;;;;;;;;;;5100902;27;20555;-69
2022/03/19 14:05:06;;;;;;;7.57;4.00;;;;;;;;;;5104881;27;20488;-69
2022/03/19 14:07:36;;;;;;;8.43;4.25;;;;;;;;;;5097779;28;20040;-69
2022/03/19 14:10:05;;;;;;;10.80;3.85;;;;;;;;;;5104843;27;20035;-68
2022/03/19 14:12:35;;;;;;;14.55;5.70;;;;;;;;;;5102831;27;20066;-69
2022/03/19 14:15:01;;;;;;;9.90;4.78;;;;;;;;;;5103022;28;20431;-69
2022/03/19 14:17:53;;;;;;;6.55;3.63;;;;;;;;;;5098782;28;20031;-69
2022/03/19 14:20:20;;;;;;;9.52;4.60;;;;;;;;;;5087286;28;20519;-69
2022/03/19 14:22:49;;;;;;;10.75;5.00;;;;;;;;;;5107596;27;20039;-69
2022/03/19 14:25:15;;;;;;;8.43;4.47;;;;;;;;;;5101688;28;20032;-69
2022/03/19 14:27:42;;;;;;;8.48;4.97;;;;;;;;;;5085050;28;20040;-69
2022/03/19 14:30:08;;;;;;;9.07;4.80;;;;;;;;;;5084965;28;20028;-69
2022/03/19 14:32:33;;;;;;;7.70;4.68;;;;;;;;;;5086041;27;20123;-69
2022/03/19 14:34:59;;;;;;;9.82;5.00;;;;;;;;;;5067079;28;20326;-69
2022/03/19 14:37:25;;;;;;;10.68;5.63;;;;;;;;;;5067034;28;20016;-69
2022/03/19 14:39:50;;;;;;;9.50;5.00;;;;;;;;;;5080919;27;21112;-69
2022/03/19 14:42:17;;;;;;;8.32;5.03;;;;;;;;;;5087343;28;20032;-68
2022/03/19 14:44:43;;;;;;;8.23;4.90;;;;;;;;;;5086063;27;20098;-68
2022/03/19 14:47:10;;;;;;;11.15;5.65;;;;;;;;;;5074790;27;20071;-68
2022/03/19 14:49:35;;;;;;;9.50;5.65;;;;;;;;;;5072583;28;20040;-68